createdAt,value
2018-05-04T00:00:07.571Z,7.90
2018-05-04T00:01:07.550Z,8.40
2018-05-04T00:02:07.531Z,7.90
2018-05-04T00:03:07.509Z,8.10
2018-05-04T00:04:07.490Z,8.20
2018-05-04T00:05:07.470Z,8.60
2018-05-04T00:06:07.451Z,8.60
2018-05-04T00:07:07.429Z,8.20
2018-05-04T00:08:07.408Z,8.60
2018-05-04T00:09:07.390Z,7.70
2018-05-04T00:10:07.372Z,7.70
2018-05-04T00:11:07.348Z,8.50
2018-05-04T00:12:07.328Z,8.40
2018-05-04T00:13:07.307Z,8.10
2018-05-04T00:14:07.290Z,8.70
2018-05-04T00:15:07.267Z,8.40
2018-05-04T00:16:07.251Z,8.20
2018-05-04T00:17:07.227Z,8.40
2018-05-04T00:18:07.212Z,8.50
2018-05-04T00:19:07.185Z,8.30
2018-05-04T00:20:07.169Z,8.30
2018-05-04T00:21:07.145Z,7.90
2018-05-04T00:22:07.125Z,8.80
2018-05-04T00:23:07.105Z,8.10
2018-05-04T00:24:07.086Z,8.20
2018-05-04T00:25:07.065Z,8.30
2018-05-04T00:26:07.044Z,8.20
2018-05-04T00:27:07.024Z,8.10
2018-05-04T00:28:07.005Z,7.90
2018-05-04T00:29:06.983Z,8.10
2018-05-04T00:30:06.966Z,8.60
2018-05-04T00:31:06.944Z,8.10
2018-05-04T00:32:06.923Z,8.10
2018-05-04T00:33:06.905Z,8.40
2018-05-04T00:34:06.888Z,8.60
2018-05-04T00:35:06.863Z,7.90
2018-05-04T00:36:06.844Z,7.40
2018-05-04T00:37:06.823Z,8.30
2018-05-04T00:38:06.802Z,8.20
2018-05-04T00:39:06.786Z,7.90
2018-05-04T00:40:06.763Z,8.30
2018-05-04T00:41:06.741Z,8.10
2018-05-04T00:42:06.721Z,8.30
2018-05-04T00:43:06.702Z,8.00
2018-05-04T00:44:06.682Z,8.30
2018-05-04T00:45:06.661Z,8.30
2018-05-04T00:46:06.641Z,8.90
2018-05-04T00:47:06.621Z,8.60
2018-05-04T00:48:06.602Z,8.20
2018-05-04T00:49:06.581Z,8.30
2018-05-04T00:50:06.560Z,8.30
2018-05-04T00:51:06.540Z,8.30
2018-05-04T00:52:06.521Z,8.60
2018-05-04T00:53:06.499Z,8.50
2018-05-04T00:54:06.481Z,7.90
2018-05-04T00:55:06.459Z,8.60
2018-05-04T00:56:06.440Z,8.30
2018-05-04T00:57:06.424Z,7.90
2018-05-04T00:58:06.400Z,8.00
2018-05-04T00:59:06.381Z,8.10
2018-05-04T01:00:06.360Z,8.40
2018-05-04T01:01:06.339Z,8.30
2018-05-04T01:02:06.319Z,8.60
2018-05-04T01:03:06.298Z,8.20
2018-05-04T01:04:06.279Z,8.10
2018-05-04T01:05:06.259Z,7.90
2018-05-04T01:06:06.240Z,8.40
2018-05-04T01:07:06.218Z,8.20
2018-05-04T01:08:06.197Z,8.10
2018-05-04T01:09:06.178Z,8.40
2018-05-04T01:10:06.159Z,8.50
2018-05-04T01:11:06.139Z,8.20
2018-05-04T01:12:06.118Z,8.60
2018-05-04T01:13:06.099Z,8.30
2018-05-04T01:14:06.179Z,8.40
2018-05-04T01:15:06.057Z,7.90
2018-05-04T01:16:06.037Z,8.70
2018-05-04T01:17:06.017Z,8.60
2018-05-04T01:18:05.999Z,8.30
2018-05-04T01:19:05.977Z,9.00
2018-05-04T01:20:05.958Z,8.50
2018-05-04T01:21:05.944Z,9.10
2018-05-04T01:22:05.918Z,8.90
2018-05-04T01:23:05.897Z,9.10
2018-05-04T01:24:05.882Z,10.00
2018-05-04T01:25:05.856Z,9.30
2018-05-04T01:26:05.836Z,9.50
2018-05-04T01:27:05.816Z,9.90
2018-05-04T01:28:05.796Z,9.20
2018-05-04T01:29:05.777Z,9.30
2018-05-04T01:30:05.757Z,9.30
2018-05-04T01:31:05.735Z,9.00
2018-05-04T01:32:05.715Z,9.70
2018-05-04T01:33:05.697Z,9.00
2018-05-04T01:34:05.676Z,9.10
2018-05-04T01:35:05.655Z,9.00
2018-05-04T01:36:05.635Z,9.60
2018-05-04T01:37:05.615Z,9.30
2018-05-04T01:38:05.595Z,9.00
2018-05-04T01:39:05.581Z,9.10
2018-05-04T01:40:05.554Z,9.40
2018-05-04T01:41:05.534Z,9.70
2018-05-04T01:42:05.515Z,8.80
2018-05-04T01:43:05.496Z,8.70
2018-05-04T01:44:05.475Z,8.90
2018-05-04T01:45:05.454Z,8.90
2018-05-04T01:46:05.437Z,9.30
2018-05-04T01:47:05.416Z,9.00
2018-05-04T01:48:05.395Z,8.60
2018-05-04T01:49:05.372Z,9.50
2018-05-04T01:50:05.355Z,8.80
2018-05-04T01:51:05.330Z,9.30
2018-05-04T01:52:05.312Z,8.70
2018-05-04T01:53:05.291Z,8.80
2018-05-04T01:54:05.271Z,9.30
2018-05-04T01:55:05.251Z,8.70
2018-05-04T01:56:05.233Z,9.50
2018-05-04T01:57:05.209Z,9.20
2018-05-04T01:58:05.193Z,9.70
2018-05-04T01:59:05.171Z,8.90
2018-05-04T02:00:05.150Z,8.60
2018-05-04T02:01:05.129Z,9.10
2018-05-04T02:02:05.114Z,9.30
2018-05-04T02:03:05.089Z,8.60
2018-05-04T02:04:05.067Z,8.90
2018-05-04T02:05:05.048Z,9.20
2018-05-04T02:06:05.028Z,8.80
2018-05-04T02:07:05.006Z,8.90
2018-05-04T02:08:04.989Z,8.60
2018-05-04T02:09:04.967Z,8.20
2018-05-04T02:10:04.946Z,8.10
2018-05-04T02:11:04.925Z,8.30
2018-05-04T02:12:04.905Z,8.50
2018-05-04T02:13:04.886Z,8.30
2018-05-04T02:14:04.865Z,8.20
2018-05-04T02:15:04.844Z,8.10
2018-05-04T02:16:04.824Z,8.10
2018-05-04T02:17:04.805Z,8.40
2018-05-04T02:18:04.783Z,8.20
2018-05-04T02:19:04.762Z,8.60
2018-05-04T02:20:04.744Z,8.40
2018-05-04T02:21:04.722Z,8.10
2018-05-04T02:22:04.703Z,8.70
2018-05-04T02:23:04.681Z,8.30
2018-05-04T02:24:04.660Z,8.10
2018-05-04T02:25:04.641Z,8.70
2018-05-04T02:26:04.621Z,8.20
2018-05-04T02:27:04.600Z,8.20
2018-05-04T02:28:04.582Z,8.30
2018-05-04T02:29:04.559Z,8.70
2018-05-04T02:30:04.538Z,8.80
2018-05-04T02:31:04.519Z,8.70
2018-05-04T02:32:04.497Z,8.50
2018-05-04T02:33:04.478Z,8.70
2018-05-04T02:34:04.460Z,8.80
2018-05-04T02:35:05.938Z,8.90
2018-05-04T02:36:04.416Z,8.10
2018-05-04T02:37:04.400Z,9.00
2018-05-04T02:38:04.376Z,9.10
2018-05-04T02:39:04.356Z,9.10
2018-05-04T02:40:04.333Z,8.60
2018-05-04T02:41:04.315Z,8.80
2018-05-04T02:42:04.294Z,8.80
2018-05-04T02:43:04.273Z,8.70
2018-05-04T02:44:04.253Z,9.40
2018-05-04T02:45:04.238Z,9.00
2018-05-04T02:46:04.213Z,9.00
2018-05-04T02:47:04.191Z,9.50
2018-05-04T02:48:04.171Z,9.50
2018-05-04T02:49:04.155Z,8.90
2018-05-04T02:50:04.129Z,9.40
2018-05-04T02:51:04.107Z,9.50
2018-05-04T02:52:04.089Z,9.80
2018-05-04T02:53:04.067Z,9.50
2018-05-04T02:54:04.047Z,9.60
2018-05-04T02:55:04.034Z,9.90
2018-05-04T02:56:04.005Z,10.10
2018-05-04T02:57:03.986Z,10.00
2018-05-04T02:58:03.965Z,10.70
2018-05-04T02:59:03.943Z,10.60
2018-05-04T03:00:03.924Z,10.10
2018-05-04T03:01:03.904Z,9.90
2018-05-04T03:02:03.883Z,10.70
2018-05-04T03:03:03.865Z,10.40
2018-05-04T03:04:03.842Z,10.40
2018-05-04T03:05:03.821Z,11.00
2018-05-04T03:06:03.802Z,11.20
2018-05-04T03:07:03.780Z,11.60
2018-05-04T03:08:03.759Z,11.20
2018-05-04T03:09:03.738Z,11.50
2018-05-04T03:10:03.718Z,11.80
2018-05-04T03:11:03.698Z,11.20
2018-05-04T03:12:03.679Z,12.30
2018-05-04T03:13:03.657Z,12.70
2018-05-04T03:14:03.636Z,11.50
2018-05-04T03:15:03.617Z,13.00
2018-05-04T03:16:03.594Z,11.70
2018-05-04T03:17:03.573Z,12.00
2018-05-04T03:18:03.554Z,12.00
2018-05-04T03:19:03.532Z,12.50
2018-05-04T03:20:03.513Z,12.10
2018-05-04T03:21:03.492Z,12.60
2018-05-04T03:22:03.538Z,12.40
2018-05-04T03:23:03.449Z,12.60
2018-05-04T03:24:03.430Z,12.60
2018-05-04T03:25:03.413Z,12.40
2018-05-04T03:26:03.389Z,12.80
2018-05-04T03:27:03.368Z,12.50
2018-05-04T03:28:03.347Z,12.90
2018-05-04T03:29:03.327Z,12.80
2018-05-04T03:30:03.307Z,13.00
2018-05-04T03:31:03.285Z,12.60
2018-05-04T03:32:03.266Z,12.80
2018-05-04T03:33:03.245Z,13.70
2018-05-04T03:34:03.224Z,13.20
2018-05-04T03:35:03.202Z,13.30
2018-05-04T03:36:03.181Z,13.60
2018-05-04T03:37:03.162Z,13.50
2018-05-04T03:38:03.141Z,13.50
2018-05-04T03:39:03.120Z,13.90
2018-05-04T03:40:03.101Z,13.30
2018-05-04T03:41:03.080Z,13.80
2018-05-04T03:42:03.062Z,14.30
2018-05-04T03:43:03.039Z,14.30
2018-05-04T03:44:03.019Z,14.40
2018-05-04T03:45:02.998Z,14.30
2018-05-04T03:46:02.977Z,14.30
2018-05-04T03:47:02.956Z,13.20
2018-05-04T03:48:02.936Z,14.60
2018-05-04T03:49:02.914Z,14.80
2018-05-04T03:50:02.896Z,15.70
2018-05-04T03:51:02.872Z,14.50
2018-05-04T03:52:02.891Z,15.00
2018-05-04T03:53:02.833Z,15.40
2018-05-04T03:54:02.811Z,15.10
2018-05-04T03:55:02.793Z,16.10
2018-05-04T03:56:02.771Z,17.00
2018-05-04T03:57:02.749Z,17.00
2018-05-04T03:58:02.730Z,16.70
2018-05-04T03:59:02.708Z,16.40
2018-05-04T04:00:02.689Z,16.80
2018-05-04T04:01:02.667Z,16.50
2018-05-04T04:02:02.646Z,16.70
2018-05-04T04:03:02.626Z,15.90
2018-05-04T04:04:02.605Z,15.70
2018-05-04T04:05:03.335Z,17.00
2018-05-04T04:06:02.563Z,16.70
2018-05-04T04:07:02.546Z,18.00
2018-05-04T04:08:02.522Z,16.50
2018-05-04T04:09:02.501Z,16.80
2018-05-04T04:10:02.480Z,17.20
2018-05-04T04:11:02.462Z,15.70
2018-05-04T04:12:02.439Z,16.70
2018-05-04T04:13:02.418Z,16.90
2018-05-04T04:14:02.399Z,17.40
2018-05-04T04:15:02.378Z,16.60
2018-05-04T04:16:02.358Z,17.00
2018-05-04T04:17:02.336Z,16.50
2018-05-04T04:18:02.395Z,16.30
2018-05-04T04:19:02.294Z,17.40
2018-05-04T04:20:02.274Z,17.40
2018-05-04T04:21:03.763Z,16.90
2018-05-04T04:22:02.234Z,17.60
2018-05-04T04:23:02.214Z,17.60
2018-05-04T04:24:02.191Z,16.80
2018-05-04T04:25:02.170Z,17.30
2018-05-04T04:26:02.152Z,17.60
2018-05-04T04:27:02.133Z,18.30
2018-05-04T04:28:02.109Z,18.10
2018-05-04T04:29:02.089Z,18.10
2018-05-04T04:30:02.068Z,17.10
2018-05-04T04:31:02.049Z,17.70
2018-05-04T04:32:02.032Z,17.20
2018-05-04T04:33:02.006Z,17.90
2018-05-04T04:34:01.988Z,18.40
2018-05-04T04:35:01.969Z,18.00
2018-05-04T04:36:01.946Z,18.80
2018-05-04T04:37:01.927Z,18.70
2018-05-04T04:38:02.654Z,18.20
2018-05-04T04:39:01.882Z,18.80
2018-05-04T04:40:01.865Z,19.00
2018-05-04T04:41:01.847Z,18.60
2018-05-04T04:42:01.835Z,18.90
2018-05-04T04:43:01.802Z,18.60
2018-05-04T04:44:01.780Z,18.30
2018-05-04T04:45:01.770Z,18.60
2018-05-04T04:46:01.739Z,19.10
2018-05-04T04:47:01.718Z,18.10
2018-05-04T04:48:01.697Z,18.90
2018-05-04T04:49:01.684Z,18.80
2018-05-04T04:50:01.661Z,19.70
2018-05-04T04:51:01.636Z,19.10
2018-05-04T04:52:01.620Z,19.20
2018-05-04T04:53:01.600Z,19.00
2018-05-04T04:54:01.577Z,18.90
2018-05-04T04:55:01.555Z,19.00
2018-05-04T04:56:01.533Z,19.50
2018-05-04T04:57:01.514Z,18.70
2018-05-04T04:58:01.493Z,18.30
2018-05-04T04:59:01.473Z,19.10
2018-05-04T05:00:01.452Z,18.90
2018-05-04T05:01:01.432Z,18.90
2018-05-04T05:02:01.415Z,19.70
2018-05-04T05:03:01.389Z,19.10
2018-05-04T05:04:01.368Z,18.80
2018-05-04T05:05:01.348Z,19.00
2018-05-04T05:06:01.328Z,19.00
2018-05-04T05:07:01.307Z,19.40
2018-05-04T05:08:01.286Z,18.90
2018-05-04T05:09:01.274Z,19.40
2018-05-04T05:10:01.998Z,18.10
2018-05-04T05:11:01.227Z,20.10
2018-05-04T05:12:01.205Z,19.70
2018-05-04T05:13:01.185Z,19.30
2018-05-04T05:14:01.164Z,19.50
2018-05-04T05:15:01.146Z,20.30
2018-05-04T05:16:01.122Z,19.60
2018-05-04T05:17:01.104Z,19.70
2018-05-04T05:18:01.085Z,19.50
2018-05-04T05:19:01.060Z,20.00
2018-05-04T05:20:01.046Z,19.60
2018-05-04T05:21:01.018Z,19.30
2018-05-04T05:22:01.013Z,19.70
2018-05-04T05:23:00.977Z,19.80
2018-05-04T05:24:00.956Z,19.40
2018-05-04T05:25:00.937Z,18.70
2018-05-04T05:26:01.669Z,19.50
2018-05-04T05:27:00.894Z,19.50
2018-05-04T05:28:00.874Z,20.50
2018-05-04T05:29:00.853Z,19.50
2018-05-04T05:30:00.833Z,19.40
2018-05-04T05:31:00.811Z,20.00
2018-05-04T05:32:00.792Z,19.60
2018-05-04T05:33:00.771Z,19.30
2018-05-04T05:34:00.750Z,19.70
2018-05-04T05:35:00.730Z,19.70
2018-05-04T05:36:00.709Z,19.50
2018-05-04T05:37:00.688Z,19.90
2018-05-04T05:38:00.672Z,19.50
2018-05-04T05:39:00.647Z,20.10
2018-05-04T05:40:00.630Z,19.50
2018-05-04T05:41:00.607Z,20.50
2018-05-04T05:42:01.337Z,20.40
2018-05-04T05:43:00.567Z,20.40
2018-05-04T05:44:00.548Z,20.60
2018-05-04T05:45:00.524Z,21.00
2018-05-04T05:46:00.504Z,19.70
2018-05-04T05:47:00.482Z,20.60
2018-05-04T05:48:00.462Z,19.90
2018-05-04T05:49:00.443Z,19.50
2018-05-04T05:50:00.424Z,19.90
2018-05-04T05:51:00.401Z,20.70
2018-05-04T05:52:00.638Z,20.10
2018-05-04T05:53:01.863Z,19.90
2018-05-04T05:54:00.341Z,20.90
2018-05-04T05:55:00.320Z,20.70
2018-05-04T05:56:00.303Z,20.70
2018-05-04T05:57:00.281Z,20.00
2018-05-04T05:58:00.331Z,20.40
2018-05-04T05:59:00.989Z,20.40
2018-05-04T06:00:00.283Z,20.10
2018-05-04T06:01:00.197Z,20.60
2018-05-04T06:02:00.176Z,20.70
2018-05-04T06:03:00.156Z,20.60
2018-05-04T06:04:00.171Z,21.30
2018-05-04T06:05:00.114Z,21.40
2018-05-04T06:06:00.095Z,20.60
2018-05-04T06:07:00.073Z,20.50
2018-05-04T06:08:00.061Z,21.90
2018-05-04T06:09:00.038Z,21.20
2018-05-04T06:10:00.016Z,20.80
2018-05-04T06:10:59.991Z,20.60
2018-05-04T06:11:59.971Z,21.20
2018-05-04T06:12:59.951Z,20.70
2018-05-04T06:13:59.930Z,20.90
2018-05-04T06:14:59.926Z,20.50
2018-05-04T06:15:59.891Z,20.40
2018-05-04T06:16:59.870Z,21.20
2018-05-04T06:17:59.849Z,20.40
2018-05-04T06:18:59.832Z,21.00
2018-05-04T06:19:59.809Z,21.00
2018-05-04T06:20:59.788Z,21.20
2018-05-04T06:21:59.767Z,21.40
2018-05-04T06:22:59.746Z,20.90
2018-05-04T06:23:59.727Z,20.80
2018-05-04T06:24:59.784Z,20.70
2018-05-04T06:25:59.686Z,20.90
2018-05-04T06:26:59.664Z,21.70
2018-05-04T06:27:59.646Z,21.00
2018-05-04T06:28:59.627Z,20.50
2018-05-04T06:29:59.604Z,21.50
2018-05-04T06:30:59.586Z,21.80
2018-05-04T06:31:59.565Z,22.40
2018-05-04T06:32:59.543Z,20.70
2018-05-04T06:33:59.534Z,21.20
2018-05-04T06:34:59.503Z,20.90
2018-05-04T06:35:59.482Z,20.50
2018-05-04T06:36:59.462Z,21.00
2018-05-04T06:37:59.447Z,21.70
2018-05-04T06:38:59.421Z,21.20
2018-05-04T06:39:59.401Z,20.60
2018-05-04T06:40:59.381Z,21.40
2018-05-04T06:41:59.362Z,21.20
2018-05-04T06:42:59.339Z,20.50
2018-05-04T06:43:59.319Z,21.40
2018-05-04T06:44:59.300Z,20.70
2018-05-04T06:45:59.279Z,20.90
2018-05-04T06:46:59.258Z,21.10
2018-05-04T06:47:59.237Z,21.10
2018-05-04T06:48:59.217Z,20.70
2018-05-04T06:49:59.196Z,21.30
2018-05-04T06:50:59.179Z,20.70
2018-05-04T06:51:59.155Z,21.30
2018-05-04T06:52:59.135Z,21.00
2018-05-04T06:53:59.127Z,21.20
2018-05-04T06:54:59.099Z,21.60
2018-05-04T06:55:59.075Z,20.70
2018-05-04T06:56:59.055Z,20.80
2018-05-04T06:57:59.046Z,20.80
2018-05-04T06:58:59.015Z,20.70
2018-05-04T06:59:58.993Z,20.00
2018-05-04T07:00:58.974Z,20.50
2018-05-04T07:01:58.954Z,20.40
2018-05-04T07:03:01.187Z,20.00
2018-05-04T07:03:58.915Z,20.40
2018-05-04T07:04:58.899Z,20.10
2018-05-04T07:05:58.875Z,20.20
2018-05-04T07:06:58.855Z,20.20
2018-05-04T07:07:58.839Z,19.90
2018-05-04T07:08:58.835Z,20.10
2018-05-04T07:09:58.795Z,20.30
2018-05-04T07:10:58.774Z,20.60
2018-05-04T07:11:58.755Z,20.30
2018-05-04T07:12:58.737Z,19.70
2018-05-04T07:13:58.717Z,20.00
2018-05-04T07:14:58.737Z,20.00
2018-05-04T07:15:58.677Z,20.50
2018-05-04T07:16:58.659Z,20.30
2018-05-04T07:17:58.640Z,20.70
2018-05-04T07:18:58.618Z,20.10
2018-05-04T07:19:59.353Z,20.70
2018-05-04T07:20:58.586Z,19.60
2018-05-04T07:21:58.640Z,21.00
2018-05-04T07:22:58.542Z,21.10
2018-05-04T07:23:58.526Z,20.60
2018-05-04T07:24:58.504Z,21.10
2018-05-04T07:25:58.483Z,20.40
2018-05-04T07:26:58.464Z,20.20
2018-05-04T07:27:58.444Z,20.10
2018-05-04T07:28:58.426Z,20.20
2018-05-04T07:29:58.409Z,20.40
2018-05-04T07:31:01.390Z,20.00
2018-05-04T07:31:58.367Z,19.90
2018-05-04T07:32:58.349Z,21.10
2018-05-04T07:33:58.329Z,20.70
2018-05-04T07:34:58.310Z,20.70
2018-05-04T07:35:58.342Z,20.80
2018-05-04T07:36:58.270Z,20.20
2018-05-04T07:37:58.251Z,21.00
2018-05-04T07:38:58.234Z,19.90
2018-05-04T07:39:58.214Z,19.50
2018-05-04T07:40:58.195Z,19.30
2018-05-04T07:41:58.179Z,19.50
2018-05-04T07:42:58.156Z,20.20
2018-05-04T07:43:58.135Z,20.30
2018-05-04T07:44:58.117Z,20.50
2018-05-04T07:45:58.098Z,20.70
2018-05-04T07:46:58.078Z,20.60
2018-05-04T07:47:58.061Z,19.90
2018-05-04T07:48:58.041Z,20.10
2018-05-04T07:49:58.022Z,18.80
2018-05-04T07:50:58.003Z,21.00
2018-05-04T07:51:57.989Z,20.60
2018-05-04T07:52:57.965Z,21.10
2018-05-04T07:53:57.947Z,20.20
2018-05-04T07:54:57.926Z,20.70
2018-05-04T07:55:57.908Z,20.30
2018-05-04T07:56:57.891Z,20.90
2018-05-04T07:57:57.871Z,19.80
2018-05-04T07:58:57.852Z,19.20
2018-05-04T07:59:57.833Z,20.50
2018-05-04T08:00:57.815Z,19.50
2018-05-04T08:01:57.797Z,21.00
2018-05-04T08:02:57.779Z,21.70
2018-05-04T08:03:57.759Z,21.50
2018-05-04T08:04:57.739Z,19.70
2018-05-04T08:05:57.721Z,20.90
2018-05-04T08:06:57.704Z,20.50
2018-05-04T08:07:57.683Z,20.60
2018-05-04T08:08:57.667Z,20.00
2018-05-04T08:09:57.647Z,21.40
2018-05-04T08:10:57.628Z,21.80
2018-05-04T08:11:57.619Z,20.80
2018-05-04T08:12:57.590Z,21.20
2018-05-04T08:13:57.573Z,21.20
2018-05-04T08:14:57.552Z,20.50
2018-05-04T08:15:57.535Z,21.00
2018-05-04T08:16:57.593Z,22.20
2018-05-04T08:17:57.498Z,21.20
2018-05-04T08:18:57.483Z,20.90
2018-05-04T08:19:57.495Z,20.90
2018-05-04T08:20:57.442Z,21.10
2018-05-04T08:21:57.424Z,21.60
2018-05-04T08:22:57.404Z,22.10
2018-05-04T08:23:57.389Z,20.80
2018-05-04T08:24:57.367Z,21.90
2018-05-04T08:25:57.350Z,21.50
2018-05-04T08:26:57.331Z,20.60
2018-05-04T08:27:57.314Z,22.60
2018-05-04T08:28:57.295Z,21.00
2018-05-04T08:29:58.027Z,21.50
2018-05-04T08:30:57.262Z,21.30
2018-05-04T08:31:57.239Z,21.10
2018-05-04T08:32:57.220Z,23.10
2018-05-04T08:33:57.204Z,21.30
2018-05-04T08:34:57.184Z,21.30
2018-05-04T08:35:57.165Z,21.90
2018-05-04T08:36:57.148Z,21.30
2018-05-04T08:37:57.132Z,20.60
2018-05-04T08:38:57.111Z,20.70
2018-05-04T08:39:57.092Z,22.00
2018-05-04T08:40:57.076Z,21.60
2018-05-04T08:41:57.056Z,22.10
2018-05-04T08:42:57.118Z,21.30
2018-05-04T08:43:57.019Z,21.50
2018-05-04T08:44:57.065Z,20.40
2018-05-04T08:45:57.732Z,21.50
2018-05-04T08:46:57.002Z,21.80
2018-05-04T08:47:56.947Z,22.40
2018-05-04T08:48:56.926Z,21.60
2018-05-04T08:49:56.910Z,22.60
2018-05-04T08:50:56.931Z,20.80
2018-05-04T08:51:56.871Z,21.90
2018-05-04T08:52:56.854Z,22.40
2018-05-04T08:53:56.840Z,23.10
2018-05-04T08:54:56.816Z,22.40
2018-05-04T08:55:56.799Z,21.90
2018-05-04T08:56:56.781Z,24.40
2018-05-04T08:57:56.763Z,21.50
2018-05-04T08:58:56.744Z,21.90
2018-05-04T08:59:56.765Z,23.00
2018-05-04T09:00:56.707Z,22.10
2018-05-04T09:01:59.694Z,23.10
2018-05-04T09:02:56.676Z,23.00
2018-05-04T09:03:56.653Z,21.50
2018-05-04T09:04:56.634Z,22.30
2018-05-04T09:05:56.616Z,22.50
2018-05-04T09:06:56.599Z,23.50
2018-05-04T09:07:57.338Z,21.70
2018-05-04T09:08:56.562Z,21.60
2018-05-04T09:09:56.544Z,23.00
2018-05-04T09:10:56.527Z,22.20
2018-05-04T09:11:56.509Z,22.30
2018-05-04T09:12:56.491Z,21.60
2018-05-04T09:13:56.485Z,22.00
2018-05-04T09:14:56.455Z,21.20
2018-05-04T09:15:56.443Z,22.40
2018-05-04T09:16:56.418Z,22.10
2018-05-04T09:17:56.401Z,21.10
2018-05-04T09:18:56.383Z,21.30
2018-05-04T09:19:56.503Z,22.40
2018-05-04T09:20:56.349Z,21.50
2018-05-04T09:21:56.366Z,21.60
2018-05-04T09:22:56.312Z,22.10
2018-05-04T09:23:56.294Z,21.30
2018-05-04T09:24:56.280Z,21.60
2018-05-04T09:25:56.259Z,22.20
2018-05-04T09:26:56.241Z,22.10
2018-05-04T09:27:56.222Z,21.50
2018-05-04T09:28:56.206Z,22.00
2018-05-04T09:29:56.189Z,22.80
2018-05-04T09:30:56.214Z,21.10
2018-05-04T09:31:56.152Z,22.00
2018-05-04T09:32:56.140Z,21.70
2018-05-04T09:33:56.120Z,21.70
2018-05-04T09:34:56.100Z,21.80
2018-05-04T09:35:56.085Z,22.20
2018-05-04T09:36:56.066Z,21.50
2018-05-04T09:37:56.049Z,22.30
2018-05-04T09:38:56.031Z,21.70
2018-05-04T09:39:56.015Z,20.90
2018-05-04T09:40:55.997Z,21.00
2018-05-04T09:41:55.980Z,21.50
2018-05-04T09:42:55.962Z,21.00
2018-05-04T09:43:55.945Z,22.20
2018-05-04T09:44:55.928Z,22.20
2018-05-04T09:45:55.913Z,22.10
2018-05-04T09:46:55.893Z,21.80
2018-05-04T09:47:55.878Z,22.40
2018-05-04T09:48:55.903Z,22.60
2018-05-04T09:49:55.842Z,21.80
2018-05-04T09:50:55.824Z,22.20
2018-05-04T09:51:57.308Z,22.20
2018-05-04T09:52:55.788Z,23.90
2018-05-04T09:53:55.776Z,22.80
2018-05-04T09:54:55.754Z,23.30
2018-05-04T09:55:55.798Z,23.80
2018-05-04T09:56:55.723Z,22.70
2018-05-04T09:57:56.453Z,23.20
2018-05-04T09:58:55.687Z,21.50
2018-05-04T09:59:55.667Z,22.40
2018-05-04T10:00:55.650Z,23.50
2018-05-04T10:01:55.633Z,23.20
2018-05-04T10:02:55.616Z,23.60
2018-05-04T10:03:55.598Z,23.90
2018-05-04T10:04:55.581Z,23.20
2018-05-04T10:05:55.565Z,23.30
2018-05-04T10:06:55.545Z,23.70
2018-05-04T10:07:55.529Z,24.10
2018-05-04T10:08:55.513Z,23.80
2018-05-04T10:09:55.496Z,22.70
2018-05-04T10:10:55.478Z,23.00
2018-05-04T10:11:55.460Z,23.60
2018-05-04T10:12:55.442Z,22.10
2018-05-04T10:13:55.430Z,23.90
2018-05-04T10:14:55.408Z,22.90
2018-05-04T10:15:55.392Z,22.50
2018-05-04T10:16:55.376Z,22.00
2018-05-04T10:17:55.360Z,22.10
2018-05-04T10:18:55.339Z,23.00
2018-05-04T10:19:55.326Z,22.10
2018-05-04T10:20:55.306Z,23.20
2018-05-04T10:21:55.331Z,22.10
2018-05-04T10:22:55.273Z,23.60
2018-05-04T10:23:55.255Z,22.70
2018-05-04T10:24:55.239Z,22.70
2018-05-04T10:25:55.223Z,23.10
2018-05-04T10:26:55.205Z,23.30
2018-05-04T10:27:55.188Z,21.90
2018-05-04T10:28:55.174Z,21.70
2018-05-04T10:29:55.164Z,21.60
2018-05-04T10:30:55.185Z,21.80
2018-05-04T10:31:55.121Z,20.00
2018-05-04T10:32:55.110Z,21.30
2018-05-04T10:33:55.088Z,20.90
2018-05-04T10:34:55.070Z,21.40
2018-05-04T10:35:55.064Z,20.40
2018-05-04T10:36:55.038Z,20.20
2018-05-04T10:37:55.022Z,20.70
2018-05-04T10:38:55.139Z,20.80
2018-05-04T10:39:54.989Z,21.00
2018-05-04T10:40:54.973Z,21.20
2018-05-04T10:41:54.957Z,20.30
2018-05-04T10:42:54.943Z,21.30
2018-05-04T10:43:54.924Z,21.40
2018-05-04T10:44:54.909Z,20.60
2018-05-04T10:45:54.893Z,20.90
2018-05-04T10:46:54.877Z,20.10
2018-05-04T10:47:54.861Z,20.00
2018-05-04T10:48:54.852Z,20.10
2018-05-04T10:49:54.828Z,19.10
2018-05-04T10:50:55.566Z,19.10
2018-05-04T10:51:54.802Z,19.90
2018-05-04T10:52:54.782Z,19.10
2018-05-04T10:53:54.766Z,19.60
2018-05-04T10:54:54.749Z,19.90
2018-05-04T10:55:54.733Z,20.80
2018-05-04T10:56:54.719Z,19.60
2018-05-04T10:57:54.703Z,19.40
2018-05-04T10:58:54.691Z,19.80
2018-05-04T10:59:54.672Z,21.00
2018-05-04T11:00:54.655Z,19.40
2018-05-04T11:01:54.641Z,20.10
2018-05-04T11:02:54.625Z,19.50
2018-05-04T11:03:54.609Z,19.70
2018-05-04T11:04:54.594Z,20.60
2018-05-04T11:05:54.577Z,20.70
2018-05-04T11:06:54.562Z,19.30
2018-05-04T11:07:54.546Z,19.90
2018-05-04T11:08:54.530Z,19.50
2018-05-04T11:09:54.515Z,20.40
2018-05-04T11:10:54.497Z,20.50
2018-05-04T11:11:54.538Z,19.90
2018-05-04T11:12:54.469Z,19.70
2018-05-04T11:13:54.451Z,19.90
2018-05-04T11:14:54.434Z,19.30
2018-05-04T11:15:54.418Z,19.60
2018-05-04T11:16:54.409Z,20.30
2018-05-04T11:17:54.387Z,19.20
2018-05-04T11:18:54.371Z,20.40
2018-05-04T11:19:54.357Z,20.80
2018-05-04T11:20:54.345Z,19.90
2018-05-04T11:21:54.327Z,20.10
2018-05-04T11:22:54.311Z,20.30
2018-05-04T11:23:54.289Z,19.80
2018-05-04T11:24:54.273Z,19.00
2018-05-04T11:25:54.258Z,19.90
2018-05-04T11:26:54.240Z,19.90
2018-05-04T11:27:54.223Z,20.60
2018-05-04T11:28:54.208Z,20.10
2018-05-04T11:29:54.192Z,19.20
2018-05-04T11:30:54.201Z,19.20
2018-05-04T11:31:54.157Z,19.40
2018-05-04T11:32:54.141Z,19.60
2018-05-04T11:33:54.877Z,20.20
2018-05-04T11:34:54.108Z,19.20
2018-05-04T11:35:54.091Z,19.50
2018-05-04T11:36:54.075Z,20.10
2018-05-04T11:37:54.058Z,18.90
2018-05-04T11:38:54.092Z,19.30
2018-05-04T11:39:54.022Z,18.40
2018-05-04T11:40:54.006Z,19.50
2018-05-04T11:41:53.989Z,19.10
2018-05-04T11:42:53.972Z,18.90
2018-05-04T11:43:53.955Z,18.40
2018-05-04T11:44:53.938Z,19.10
2018-05-04T11:45:53.922Z,19.50
2018-05-04T11:46:53.906Z,18.00
2018-05-04T11:47:53.889Z,18.60
2018-05-04T11:48:53.870Z,19.10
2018-05-04T11:49:54.605Z,19.40
2018-05-04T11:50:53.837Z,18.50
2018-05-04T11:51:53.821Z,17.60
2018-05-04T11:52:53.805Z,18.70
2018-05-04T11:53:53.789Z,17.70
2018-05-04T11:54:53.771Z,18.30
2018-05-04T11:55:53.756Z,18.20
2018-05-04T11:56:53.739Z,18.70
2018-05-04T11:57:53.723Z,18.00
2018-05-04T11:58:53.705Z,17.80
2018-05-04T11:59:53.690Z,18.60
2018-05-04T12:00:53.675Z,18.40
2018-05-04T12:01:53.664Z,17.80
2018-05-04T12:02:53.643Z,18.40
2018-05-04T12:03:53.626Z,18.60
2018-05-04T12:04:53.699Z,20.00
2018-05-04T12:05:53.595Z,18.90
2018-05-04T12:06:53.578Z,17.80
2018-05-04T12:07:53.563Z,18.20
2018-05-04T12:08:53.549Z,18.50
2018-05-04T12:09:53.536Z,17.40
2018-05-04T12:10:56.551Z,17.90
2018-05-04T12:11:53.500Z,18.50
2018-05-04T12:12:53.486Z,17.30
2018-05-04T12:13:53.471Z,18.40
2018-05-04T12:14:53.455Z,17.30
2018-05-04T12:15:53.438Z,17.80
2018-05-04T12:16:55.675Z,17.30
2018-05-04T12:17:53.408Z,17.20
2018-05-04T12:18:53.393Z,16.70
2018-05-04T12:19:53.383Z,17.50
2018-05-04T12:20:53.363Z,20.10
2018-05-04T12:21:53.348Z,20.50
2018-05-04T12:22:54.885Z,17.60
2018-05-04T12:23:53.319Z,17.80
2018-05-04T12:24:53.309Z,17.90
2018-05-04T12:25:53.287Z,17.30
2018-05-04T12:26:53.272Z,17.30
2018-05-04T12:27:53.259Z,16.30
2018-05-04T12:28:53.245Z,16.90
2018-05-04T12:29:53.228Z,16.60
2018-05-04T12:30:53.213Z,16.60
2018-05-04T12:31:53.199Z,16.20
2018-05-04T12:32:53.185Z,17.30
2018-05-04T12:33:53.168Z,16.60
2018-05-04T12:34:53.153Z,16.20
2018-05-04T12:35:53.139Z,16.00
2018-05-04T12:36:53.123Z,15.70
2018-05-04T12:37:53.109Z,17.10
2018-05-04T12:38:53.098Z,17.00
2018-05-04T12:39:53.079Z,17.40
2018-05-04T12:40:53.064Z,16.40
2018-05-04T12:41:53.049Z,16.40
2018-05-04T12:42:53.033Z,16.30
2018-05-04T12:43:53.019Z,15.50
2018-05-04T12:44:53.004Z,17.10
2018-05-04T12:45:52.988Z,17.30
2018-05-04T12:46:53.046Z,17.60
2018-05-04T12:47:52.957Z,17.50
2018-05-04T12:48:52.944Z,18.00
2018-05-04T12:49:52.933Z,17.50
2018-05-04T12:50:54.414Z,18.40
2018-05-04T12:51:52.898Z,17.80
2018-05-04T12:52:52.882Z,17.80
2018-05-04T12:53:52.867Z,17.70
2018-05-04T12:54:52.852Z,17.90
2018-05-04T12:55:52.836Z,18.00
2018-05-04T12:56:52.822Z,17.70
2018-05-04T12:57:52.807Z,18.60